Time;durP1;ratioP1;P1;durP2;ratioP2;P2;SDS_P1;SDS_P2;PMS_P1;PMS_P2;Temp;Humidity;BMP_temperature;BMP_pressure;BME280_temperature;BME280_humidity;BME280_pressure;Samples;Min_cycle;Max_cycle;Signal;HPM_P1;HPM_P2
2022/07/22 00:00:33;;;;;;;3.20;2.90;;;;;;;21.10;86.89;100611.94;5078421;28;20446;-55
2022/07/22 00:02:59;;;;;;;3.20;2.57;;;;;;;21.02;86.14;100626.94;5071210;28;20453;-54
2022/07/22 00:05:26;;;;;;;4.80;3.23;;;;;;;20.55;88.22;100625.50;5071618;28;20557;-54
2022/07/22 00:07:52;;;;;;;7.93;2.93;;;;;;;20.40;88.77;100622.78;5071750;28;20498;-54
2022/07/22 00:10:19;;;;;;;3.93;3.67;;;;;;;20.39;89.40;100614.78;5071474;28;20460;-54
2022/07/22 00:12:45;;;;;;;3.33;3.07;;;;;;;20.89;87.23;100619.66;5071744;28;20548;-53
2022/07/22 00:15:12;;;;;;;2.60;2.40;;;;;;;20.63;87.68;100629.47;5071212;28;20969;-54
2022/07/22 00:17:39;;;;;;;16.90;4.13;;;;;;;20.37;89.17;100636.50;5071505;28;20932;-53
2022/07/22 00:20:07;;;;;;;3.27;3.07;;;;;;;20.35;89.26;100633.03;5070975;28;20834;-54
2022/07/22 00:22:33;;;;;;;4.40;3.63;;;;;;;19.96;91.59;100636.41;5071324;28;20449;-53
2022/07/22 00:25:00;;;;;;;3.10;2.90;;;;;;;20.09;90.31;100631.09;5084685;28;20451;-52
2022/07/22 00:27:26;;;;;;;2.80;2.60;;;;;;;20.02;90.96;100624.38;5079864;28;20487;-53
2022/07/22 00:29:53;;;;;;;5.83;2.60;;;;;;;20.01;91.05;100628.00;5076965;28;21049;-52
2022/07/22 00:32:20;;;;;;;3.03;2.73;;;;;;;20.00;90.90;100623.56;5090298;28;20540;-53
2022/07/22 00:34:47;;;;;;;3.20;2.87;;;;;;;19.91;91.39;100621.47;5091678;28;20531;-54
2022/07/22 00:37:14;;;;;;;3.50;3.30;;;;;;;20.03;90.86;100626.97;5091400;28;20815;-53
2022/07/22 00:39:40;;;;;;;2.97;2.77;;;;;;;20.05;90.60;100625.03;5088334;28;20469;-53
2022/07/22 00:42:07;;;;;;;3.40;3.20;;;;;;;19.85;91.42;100636.19;5081848;28;20540;-53
2022/07/22 00:44:34;;;;;;;3.10;2.90;;;;;;;19.74;91.73;100636.88;5095356;28;20449;-53
2022/07/22 00:47:04;;;;;;;2.20;2.10;;;;;;;19.98;90.52;100634.47;5095351;28;20492;-53
2022/07/22 00:49:30;;;;;;;3.97;3.47;;;;;;;19.86;91.15;100637.91;5091482;28;20481;-53
2022/07/22 00:51:57;;;;;;;5.47;4.90;;;;;;;19.73;90.75;100628.84;5085029;28;20459;-53
2022/07/22 00:54:24;;;;;;;4.40;3.80;;;;;;;19.68;91.14;100626.44;5095311;28;20453;-53
2022/07/22 00:56:51;;;;;;;3.00;2.73;;;;;;;19.63;90.81;100628.56;5094394;28;20445;-53
2022/07/22 00:59:17;;;;;;;3.57;3.27;;;;;;;19.64;91.02;100626.72;5090566;28;20480;-53
2022/07/22 01:01:45;;;;;;;6.40;2.87;;;;;;;19.81;90.23;100626.56;5085712;28;20445;-53
2022/07/22 01:04:13;;;;;;;3.50;3.30;;;;;;;19.78;90.50;100629.44;5094762;28;20449;-53
2022/07/22 01:06:44;;;;;;;4.83;4.03;;;;;;;19.90;90.10;100625.13;5095028;28;20488;-53
2022/07/22 01:09:11;;;;;;;11.13;3.20;;;;;;;19.89;90.34;100612.59;5089190;28;20472;-53
2022/07/22 01:11:39;;;;;;;5.33;3.43;;;;;;;19.80;90.56;100614.91;5086786;28;20457;-53
2022/07/22 01:14:05;;;;;;;4.90;4.33;;;;;;;19.48;92.08;100615.97;5088135;28;20469;-53
2022/07/22 01:16:32;;;;;;;9.13;3.50;;;;;;;19.61;91.79;100625.09;5087169;28;20453;-53
2022/07/22 01:18:58;;;;;;;4.43;4.00;;;;;;;19.66;91.30;100622.97;5088059;28;20470;-53
2022/07/22 01:21:26;;;;;;;9.23;3.20;;;;;;;19.65;91.56;100621.22;5087524;28;20444;-53
2022/07/22 01:23:52;;;;;;;2.60;2.43;;;;;;;19.30;92.96;100626.00;5094936;28;20452;-53
2022/07/22 01:26:19;;;;;;;4.00;3.80;;;;;;;18.98;94.32;100630.59;5082466;28;20965;-52
2022/07/22 01:28:46;;;;;;;3.40;3.20;;;;;;;19.10;94.09;100631.72;5087141;28;21032;-52
2022/07/22 01:31:12;;;;;;;3.87;3.57;;;;;;;19.19;93.67;100626.66;5085811;28;20453;-50
2022/07/22 01:33:39;;;;;;;3.13;2.83;;;;;;;18.75;95.37;100625.66;5094182;28;20492;-51
2022/07/22 01:36:06;;;;;;;4.13;3.80;;;;;;;18.90;95.56;100620.25;5094715;28;21008;-50
2022/07/22 01:38:32;;;;;;;4.47;3.30;;;;;;;19.16;94.34;100624.13;5075724;28;20462;-50
2022/07/22 01:40:59;;;;;;;5.53;3.53;;;;;;;19.14;94.58;100619.78;5087156;28;20453;-50
2022/07/22 01:43:26;;;;;;;6.37;2.43;;;;;;;19.21;93.87;100618.47;5094240;28;20441;-50
2022/07/22 01:45:52;;;;;;;3.83;2.50;;;;;;;19.51;92.93;100624.72;5094046;28;20986;-52
2022/07/22 01:48:20;;;;;;;7.80;2.20;;;;;;;19.33;93.76;100627.69;5092939;28;20485;-51
2022/07/22 01:50:47;;;;;;;5.00;3.17;;;;;;;19.27;94.62;100626.19;5079235;28;20453;-51
2022/07/22 01:53:14;;;;;;;10.13;4.00;;;;;;;19.32;95.79;100624.06;5080294;28;20534;-51
2022/07/22 01:55:41;;;;;;;2.97;2.53;;;;;;;19.83;92.82;100620.09;5092842;28;20474;-51
2022/07/22 01:58:07;;;;;;;5.10;3.70;;;;;;;19.97;92.38;100626.47;5089112;28;20465;-50
2022/07/22 02:00:34;;;;;;;3.50;2.60;;;;;;;20.10;90.98;100627.44;5087580;28;20456;-50
2022/07/22 02:03:01;;;;;;;4.60;2.87;;;;;;;20.17;90.73;100622.53;5093911;28;20456;-51
2022/07/22 02:05:28;;;;;;;4.17;3.63;;;;;;;20.16;91.18;100634.31;5094022;28;20445;-51
2022/07/22 02:08:00;;;;;;;4.80;2.70;;;;;;;20.28;90.27;100633.50;5092695;28;20485;-51
2022/07/22 02:10:27;;;;;;;3.93;3.70;;;;;;;19.93;92.18;100624.94;5080039;28;20453;-51
2022/07/22 02:12:53;;;;;;;3.17;2.97;;;;;;;19.94;92.63;100623.97;5093345;28;20449;-51
2022/07/22 02:15:20;;;;;;;4.20;3.90;;;;;;;19.79;92.67;100628.47;5093561;28;20452;-51
2022/07/22 02:17:46;;;;;;;6.13;4.77;;;;;;;19.88;92.72;100627.94;5091904;28;20448;-51
2022/07/22 02:20:13;;;;;;;29.83;4.30;;;;;;;19.74;93.40;100623.38;5081177;28;20456;-52
2022/07/22 02:22:40;;;;;;;19.77;4.30;;;;;;;19.64;94.44;100629.41;5084824;28;20460;-52
2022/07/22 02:25:07;;;;;;;2.80;2.60;;;;;;;19.76;93.31;100628.69;5091175;28;20832;-52
2022/07/22 02:27:34;;;;;;;4.00;3.80;;;;;;;20.00;92.43;100624.44;5082127;28;20491;-52
2022/07/22 02:30:01;;;;;;;3.43;3.23;;;;;;;19.98;92.57;100630.91;5076983;28;20442;-52
2022/07/22 02:32:27;;;;;;;5.63;3.47;;;;;;;19.77;92.85;100631.28;5082737;28;20461;-52
2022/07/22 02:34:53;;;;;;;4.03;3.20;;;;;;;20.05;92.45;100630.44;5093309;28;20467;-52
2022/07/22 02:37:20;;;;;;;4.20;3.90;;;;;;;20.31;89.68;100636.91;5083180;28;20446;-52
2022/07/22 02:39:47;;;;;;;3.60;3.30;;;;;;;20.31;89.07;100634.19;5089286;28;20512;-52
2022/07/22 02:42:13;;;;;;;3.10;2.90;;;;;;;20.66;87.64;100639.19;5093401;28;20449;-52
2022/07/22 02:44:40;;;;;;;2.50;2.40;;;;;;;20.50;87.68;100635.75;5093372;28;20444;-51
2022/07/22 02:47:07;;;;;;;3.10;2.90;;;;;;;20.83;87.14;100633.56;5081851;28;20484;-52
2022/07/22 02:49:33;;;;;;;3.10;2.97;;;;;;;20.66;87.28;100641.91;5089711;28;20465;-52
2022/07/22 02:52:00;;;;;;;8.33;3.57;;;;;;;20.43;88.26;100645.22;5094056;28;20445;-49
2022/07/22 02:54:26;;;;;;;3.53;3.33;;;;;;;20.55;88.19;100634.47;5092974;28;20464;-49
2022/07/22 02:56:52;;;;;;;8.70;4.30;;;;;;;20.64;87.33;100639.28;5082050;28;20450;-51
2022/07/22 02:59:19;;;;;;;2.70;2.50;;;;;;;20.39;87.92;100639.97;5089586;28;20465;-49
2022/07/22 03:01:45;;;;;;;3.10;2.80;;;;;;;20.37;88.54;100641.03;5093030;28;20445;-50
2022/07/22 03:04:12;;;;;;;4.00;3.60;;;;;;;20.54;87.81;100632.75;5092583;28;20546;-50
2022/07/22 03:06:39;;;;;;;4.70;3.07;;;;;;;20.55;87.20;100639.00;5091745;28;20528;-50
2022/07/22 03:09:05;;;;;;;3.47;3.27;;;;;;;20.33;89.07;100634.09;5078810;28;20497;-49
2022/07/22 03:11:32;;;;;;;3.23;2.80;;;;;;;20.49;88.56;100629.47;5092944;28;20453;-49
2022/07/22 03:13:58;;;;;;;5.60;4.07;;;;;;;20.49;87.59;100639.41;5092317;28;20449;-48
2022/07/22 03:16:24;;;;;;;3.63;3.40;;;;;;;20.79;85.68;100639.25;5090624;28;20954;-49
2022/07/22 03:18:51;;;;;;;3.60;3.30;;;;;;;20.45;87.55;100632.50;5078762;28;21026;-49
2022/07/22 03:21:18;;;;;;;3.50;3.20;;;;;;;20.54;87.22;100640.84;5092877;28;20448;-49
2022/07/22 03:23:44;;;;;;;3.57;3.27;;;;;;;20.62;86.48;100641.22;5091249;28;20540;-49
2022/07/22 03:26:11;;;;;;;3.20;2.90;;;;;;;20.61;86.97;100649.44;5081395;28;20450;-49
2022/07/22 03:28:37;;;;;;;3.40;3.17;;;;;;;20.52;87.28;100644.63;5081773;28;20817;-49
2022/07/22 03:31:04;;;;;;;3.03;2.30;;;;;;;21.04;85.13;100636.69;5092407;28;20475;-49
2022/07/22 03:33:30;;;;;;;6.20;3.17;;;;;;;20.79;85.63;100641.97;5084541;28;20462;-49
2022/07/22 03:35:57;;;;;;;4.43;3.90;;;;;;;20.86;85.75;100637.91;5084274;28;20502;-48
2022/07/22 03:38:23;;;;;;;3.87;2.77;;;;;;;20.63;86.34;100636.69;5092130;28;20558;-49
2022/07/22 03:40:50;;;;;;;3.00;2.80;;;;;;;20.58;86.63;100631.59;5092069;28;20444;-49
2022/07/22 03:43:16;;;;;;;3.00;2.83;;;;;;;20.79;85.38;100634.72;5091503;28;20823;-49
2022/07/22 03:45:44;;;;;;;2.73;2.53;;;;;;;20.57;86.58;100637.97;5079929;28;21011;-50
2022/07/22 03:48:11;;;;;;;6.70;3.80;;;;;;;20.40;87.58;100646.22;5090804;28;20503;-49
2022/07/22 03:50:37;;;;;;;2.47;1.93;;;;;;;20.70;86.31;100632.66;5092441;28;20453;-49
2022/07/22 03:53:04;;;;;;;2.93;2.40;;;;;;;20.69;86.13;100626.34;5091205;28;20468;-48
2022/07/22 03:55:30;;;;;;;5.60;2.40;;;;;;;20.99;84.81;100634.28;5079401;28;20538;-49
2022/07/22 03:57:57;;;;;;;2.53;2.33;;;;;;;20.62;86.50;100632.25;5071152;28;20474;-50
2022/07/22 04:00:23;;;;;;;13.50;2.90;;;;;;;20.70;86.13;100632.66;5071539;28;20527;-49
2022/07/22 04:02:50;;;;;;;5.10;2.70;;;;;;;20.75;85.95;100622.38;5071553;28;20446;-50
2022/07/22 04:05:17;;;;;;;9.57;3.30;;;;;;;20.52;86.58;100631.97;5071318;28;20457;-49
2022/07/22 04:07:44;;;;;;;6.57;2.77;;;;;;;20.80;85.57;100627.47;5071097;28;20531;-49
2022/07/22 04:10:11;;;;;;;3.17;2.87;;;;;;;20.88;85.06;100627.84;5071728;28;20472;-50
2022/07/22 04:12:39;;;;;;;4.63;3.10;;;;;;;20.78;85.60;100633.00;5071772;28;20457;-49
2022/07/22 04:15:07;;;;;;;5.60;4.00;;;;;;;20.83;85.13;100625.47;5071673;28;20450;-49
2022/07/22 04:17:34;;;;;;;3.70;3.43;;;;;;;20.61;85.36;100633.22;5074623;28;20450;-51
2022/07/22 04:20:00;;;;;;;8.63;4.07;;;;;;;20.36;85.91;100623.97;5075414;28;20861;-49
2022/07/22 04:22:27;;;;;;;3.10;2.63;;;;;;;20.54;85.21;100623.78;5075825;28;20449;-49
2022/07/22 04:24:54;;;;;;;5.70;3.23;;;;;;;20.38;85.33;100623.84;5089426;28;20451;-50
2022/07/22 04:27:21;;;;;;;3.20;3.00;;;;;;;20.48;85.34;100629.59;5082810;28;20454;-49
2022/07/22 04:29:47;;;;;;;5.73;3.27;;;;;;;20.46;85.64;100618.88;5089159;28;20464;-51
2022/07/22 04:32:14;;;;;;;5.10;3.37;;;;;;;20.34;85.40;100617.78;5093672;28;20453;-51
2022/07/22 04:34:41;;;;;;;4.03;2.43;;;;;;;20.65;83.88;100616.72;5095659;28;20449;-50
2022/07/22 04:37:08;;;;;;;4.80;4.40;;;;;;;20.44;85.11;100619.94;5087267;28;20460;-49
2022/07/22 04:39:34;;;;;;;3.07;2.80;;;;;;;20.72;84.71;100619.91;5089772;28;20464;-50
2022/07/22 04:42:01;;;;;;;3.60;3.30;;;;;;;20.56;84.80;100630.84;5095782;28;20478;-49
2022/07/22 04:44:28;;;;;;;3.77;3.40;;;;;;;20.26;86.41;100640.84;5095244;28;20441;-50
2022/07/22 04:46:54;;;;;;;8.37;4.23;;;;;;;20.28;86.62;100628.09;5086765;28;20830;-50
2022/07/22 04:49:21;;;;;;;6.30;4.23;;;;;;;20.94;84.64;100632.84;5087858;28;21007;-49
2022/07/22 04:51:47;;;;;;;5.67;4.00;;;;;;;21.06;82.70;100633.88;5090920;28;20459;-50
2022/07/22 04:54:14;;;;;;;4.23;3.47;;;;;;;21.62;80.52;100631.91;5094947;28;20871;-49
2022/07/22 04:56:40;;;;;;;12.80;4.30;;;;;;;22.02;79.22;100633.56;5092687;28;20492;-50
2022/07/22 04:59:07;;;;;;;6.90;4.03;;;;;;;22.33;77.21;100620.56;5095186;28;20461;-49
2022/07/22 05:01:33;;;;;;;3.50;3.20;;;;;;;22.30;76.72;100623.50;5088083;28;20456;-49
2022/07/22 05:04:00;;;;;;;3.63;3.43;;;;;;;22.23;76.58;100628.50;5094978;28;20539;-49
2022/07/22 05:06:27;;;;;;;80.77;6.73;;;;;;;22.75;73.83;100627.38;5085585;28;20847;-49
2022/07/22 05:08:53;;;;;;;4.67;4.20;;;;;;;23.09;73.04;100623.06;5090044;28;20495;-49
2022/07/22 05:11:20;;;;;;;4.53;3.60;;;;;;;23.70;70.61;100629.25;5089933;28;20480;-50
2022/07/22 05:13:46;;;;;;;5.97;3.70;;;;;;;23.80;69.22;100618.53;5094713;28;20823;-49
2022/07/22 05:16:13;;;;;;;6.30;4.00;;;;;;;23.61;69.66;100621.84;5084975;28;20450;-50
2022/07/22 05:18:40;;;;;;;3.67;3.37;;;;;;;23.50;69.87;100621.78;5089606;28;21034;-51
2022/07/22 05:21:07;;;;;;;3.37;3.00;;;;;;;23.67;69.40;100618.63;5083748;28;20894;-51
2022/07/22 05:23:33;;;;;;;3.13;2.93;;;;;;;23.62;68.59;100626.28;5094802;28;20449;-51
2022/07/22 05:26:00;;;;;;;20.07;4.37;;;;;;;23.55;68.39;100620.41;5083406;28;20469;-51
2022/07/22 05:28:26;;;;;;;2.93;2.17;;;;;;;23.76;66.92;100612.50;5085275;28;20497;-49
2022/07/22 05:30:52;;;;;;;4.07;2.93;;;;;;;23.75;66.91;100610.78;5081518;28;21042;-49
2022/07/22 05:33:19;;;;;;;8.20;2.97;;;;;;;24.01;66.95;100616.88;5090741;28;20547;-48
2022/07/22 05:35:46;;;;;;;2.90;2.70;;;;;;;23.90;66.38;100627.72;5084275;28;20445;-50
2022/07/22 05:38:12;;;;;;;2.60;2.50;;;;;;;23.74;66.79;100617.19;5094371;28;20468;-50
2022/07/22 05:40:39;;;;;;;4.77;3.63;;;;;;;23.85;65.47;100614.50;5084764;28;20446;-49
2022/07/22 05:43:05;;;;;;;2.70;2.50;;;;;;;23.72;66.83;100621.88;5077590;28;20453;-49
2022/07/22 05:45:32;;;;;;;2.20;2.10;;;;;;;24.17;65.45;100622.81;5094329;28;20520;-48
2022/07/22 05:47:58;;;;;;;4.17;2.20;;;;;;;24.65;64.24;100622.56;5094040;28;20496;-49
2022/07/22 05:50:25;;;;;;;2.53;2.43;;;;;;;24.46;63.96;100623.19;5093759;28;20445;-50
2022/07/22 05:52:51;;;;;;;11.60;2.63;;;;;;;23.98;66.24;100619.81;5093760;28;20455;-51
2022/07/22 05:55:18;;;;;;;3.60;2.63;;;;;;;24.04;66.05;100616.63;5094007;28;20445;-49
2022/07/22 05:57:44;;;;;;;2.23;2.13;;;;;;;24.59;64.21;100619.47;5089800;28;20438;-51
2022/07/22 06:00:11;;;;;;;1.87;1.63;;;;;;;24.69;63.49;100625.91;5084684;28;20464;-48
2022/07/22 06:02:38;;;;;;;7.93;2.70;;;;;;;24.20;64.55;100627.97;5094016;28;20472;-49
2022/07/22 06:05:04;;;;;;;2.90;2.70;;;;;;;24.45;64.12;100620.59;5094257;28;20452;-48
2022/07/22 06:07:31;;;;;;;2.90;2.70;;;;;;;24.53;63.16;100620.81;5093728;28;20449;-49
2022/07/22 06:09:58;;;;;;;3.17;2.17;;;;;;;24.94;62.55;100622.00;5093821;28;20579;-48
2022/07/22 06:12:24;;;;;;;3.43;3.00;;;;;;;25.03;62.31;100624.84;5093849;28;20510;-49
2022/07/22 06:14:51;;;;;;;3.20;2.90;;;;;;;24.89;62.29;100624.25;5086028;28;21037;-49
2022/07/22 06:17:17;;;;;;;3.27;3.07;;;;;;;24.53;62.81;100620.81;5085923;28;20946;-50
2022/07/22 06:19:44;;;;;;;5.70;2.60;;;;;;;24.46;63.25;100623.19;5075802;28;20493;-49
2022/07/22 06:22:10;;;;;;;2.47;2.27;;;;;;;24.98;62.76;100623.50;5086208;28;20540;-49
2022/07/22 06:24:36;;;;;;;12.43;3.03;;;;;;;24.67;62.73;100622.41;5081490;28;20454;-49
2022/07/22 06:27:03;;;;;;;5.10;3.00;;;;;;;24.58;63.29;100613.19;5077615;28;20496;-48
2022/07/22 06:29:29;;;;;;;2.83;2.60;;;;;;;24.35;64.10;100627.78;5088111;28;20485;-48
2022/07/22 06:31:56;;;;;;;4.10;3.60;;;;;;;24.08;63.56;100620.81;5081287;28;20958;-48
2022/07/22 06:34:22;;;;;;;2.43;2.33;;;;;;;24.29;64.03;100620.09;5076753;28;20457;-47
2022/07/22 06:36:49;;;;;;;5.00;3.07;;;;;;;24.25;63.64;100622.16;5091498;28;20893;-48
2022/07/22 06:39:15;;;;;;;2.60;2.27;;;;;;;24.16;63.79;100617.50;5092223;28;20973;-49
2022/07/22 06:41:42;;;;;;;3.23;3.00;;;;;;;24.65;63.55;100613.53;5086540;28;20533;-48
2022/07/22 06:44:09;;;;;;;6.47;3.40;;;;;;;24.29;63.55;100610.09;5085563;28;20536;-51
2022/07/22 06:46:35;;;;;;;2.73;2.30;;;;;;;24.42;63.63;100619.00;5081248;28;20453;-49
2022/07/22 06:49:03;;;;;;;2.63;2.43;;;;;;;23.71;66.29;100617.44;5093165;28;20514;-48
2022/07/22 06:51:30;;;;;;;2.73;2.50;;;;;;;24.55;63.91;100609.84;5082224;28;20445;-48
2022/07/22 06:53:56;;;;;;;2.80;2.60;;;;;;;23.99;64.57;100612.53;5080254;28;20645;-48
2022/07/22 06:56:23;;;;;;;2.77;2.57;;;;;;;24.01;64.90;100606.00;5090802;28;20449;-48
2022/07/22 06:58:49;;;;;;;5.30;3.60;;;;;;;24.19;64.40;100606.38;5092997;28;20465;-49
2022/07/22 07:01:16;;;;;;;3.40;3.10;;;;;;;24.30;64.02;100600.97;5092804;28;20449;-48
2022/07/22 07:03:42;;;;;;;4.83;3.10;;;;;;;24.30;64.16;100603.69;5092912;28;20452;-48
2022/07/22 07:06:11;;;;;;;2.73;2.53;;;;;;;24.39;64.11;100597.50;5092349;28;20908;-48
2022/07/22 07:08:39;;;;;;;2.47;2.37;;;;;;;24.63;63.60;100594.63;5092461;28;20502;-48
2022/07/22 07:11:06;;;;;;;4.20;2.93;;;;;;;24.06;65.72;100592.03;5092600;28;20476;-48
2022/07/22 07:13:33;;;;;;;8.23;2.30;;;;;;;24.51;64.13;100593.78;5092618;28;20544;-49
2022/07/22 07:16:00;;;;;;;6.53;3.70;;;;;;;23.82;65.42;100606.56;5079197;28;20457;-49
2022/07/22 07:18:26;;;;;;;3.70;3.40;;;;;;;24.07;64.94;100593.78;5092639;28;20557;-49
2022/07/22 07:20:53;;;;;;;5.30;3.93;;;;;;;24.43;63.90;100588.13;5092413;28;20453;-49
2022/07/22 07:23:20;;;;;;;4.23;3.67;;;;;;;24.59;63.16;100579.56;5092395;28;20445;-49
2022/07/22 07:25:47;;;;;;;2.97;2.77;;;;;;;24.06;65.17;100586.59;5084942;28;20446;-51
2022/07/22 07:28:13;;;;;;;3.07;2.83;;;;;;;24.71;63.28;100596.72;5087119;28;20468;-49
2022/07/22 07:30:40;;;;;;;3.70;3.40;;;;;;;24.29;63.85;100593.78;5092482;28;20514;-50
2022/07/22 07:33:07;;;;;;;2.93;2.73;;;;;;;24.20;64.67;100587.22;5090617;28;20495;-49
2022/07/22 07:35:33;;;;;;;2.50;2.30;;;;;;;24.46;63.70;100576.13;5092459;28;20535;-50
2022/07/22 07:38:00;;;;;;;7.47;2.90;;;;;;;24.82;62.66;100564.06;5092258;28;20804;-48
2022/07/22 07:40:26;;;;;;;23.73;2.67;;;;;;;24.98;63.00;100566.38;5092206;28;20445;-50
2022/07/22 07:42:53;;;;;;;3.50;3.30;;;;;;;24.33;64.47;100573.53;5092368;28;20452;-51
2022/07/22 07:45:29;;;;;;;3.27;3.07;;;;;;;24.07;64.77;100574.75;5092414;28;20440;-50
2022/07/22 07:47:55;;;;;;;4.77;3.40;;;;;;;24.17;64.77;100575.75;5092033;28;20473;-48
2022/07/22 07:50:22;;;;;;;11.70;3.03;;;;;;;24.42;63.39;100575.53;5091618;28;20496;-48
2022/07/22 07:52:48;;;;;;;2.10;2.00;;;;;;;24.09;65.56;100576.34;5091673;28;20962;-49
2022/07/22 07:55:19;;;;;;;5.23;2.10;;;;;;;24.67;62.70;100570.75;5092425;28;20536;-49
2022/07/22 07:57:48;;;;;;;3.67;3.27;;;;;;;24.42;63.38;100575.53;5090129;28;20430;-48
2022/07/22 08:00:20;;;;;;;3.87;2.50;;;;;;;24.55;63.03;100566.38;5092702;28;20505;-48
2022/07/22 08:02:47;;;;;;;3.27;3.07;;;;;;;24.61;62.82;100564.00;5091850;28;20810;-49
2022/07/22 08:05:14;;;;;;;3.40;3.10;;;;;;;24.99;62.06;100566.22;5091783;28;20446;-50
2022/07/22 08:07:41;;;;;;;2.80;2.60;;;;;;;24.97;62.33;100565.50;5091726;28;20983;-48
2022/07/22 08:10:09;;;;;;;30.47;4.23;;;;;;;25.23;61.17;100563.31;5091976;28;20488;-49
2022/07/22 08:12:57;;;;;;;3.43;2.97;;;;;;;25.32;60.76;100557.06;5080854;28;20444;-48
2022/07/22 08:15:25;;;;;;;2.53;2.43;;;;;;;24.51;63.05;100547.56;5092019;28;20812;-48
2022/07/22 08:17:53;;;;;;;3.33;3.13;;;;;;;25.62;60.99;100550.81;5091741;28;20911;-50
2022/07/22 08:20:20;;;;;;;6.33;3.70;;;;;;;25.52;60.25;100544.47;5091964;28;20468;-48
2022/07/22 08:22:48;;;;;;;2.90;1.90;;;;;;;25.16;61.64;100542.19;5092011;28;20449;-49
2022/07/22 08:25:15;;;;;;;2.90;2.80;;;;;;;25.56;60.51;100545.94;5088566;28;20442;-48
2022/07/22 08:27:41;;;;;;;3.27;2.97;;;;;;;25.68;59.70;100536.72;5082309;28;20536;-50
2022/07/22 08:30:08;;;;;;;7.47;3.20;;;;;;;25.54;60.90;100534.31;5091398;28;20521;-50
2022/07/22 08:32:35;;;;;;;3.20;3.00;;;;;;;26.10;58.83;100527.59;5090733;28;20453;-51
2022/07/22 08:35:03;;;;;;;6.00;3.40;;;;;;;25.75;59.35;100533.44;5091761;28;20478;-49
2022/07/22 08:37:30;;;;;;;6.60;2.53;;;;;;;25.71;59.73;100535.59;5092098;28;20823;-50
2022/07/22 08:39:58;;;;;;;4.27;3.33;;;;;;;25.51;60.71;100525.56;5091818;28;20934;-49
2022/07/22 08:42:25;;;;;;;3.30;3.00;;;;;;;25.47;61.11;100522.22;5092056;28;20445;-50
2022/07/22 08:44:53;;;;;;;3.37;3.17;;;;;;;25.95;59.09;100529.84;5091814;28;20449;-49
2022/07/22 08:47:24;;;;;;;13.27;3.40;;;;;;;25.57;59.67;100528.59;5091982;28;20535;-50
2022/07/22 08:50:07;;;;;;;6.63;3.47;;;;;;;25.62;58.64;100526.31;5080186;28;21077;-50
2022/07/22 08:52:33;;;;;;;2.60;2.40;;;;;;;25.71;59.25;100521.97;5092195;28;20458;-51
2022/07/22 08:55:03;;;;;;;9.23;3.90;;;;;;;25.98;58.35;100521.38;5091548;28;20945;-50
2022/07/22 08:57:29;;;;;;;5.07;3.40;;;;;;;26.03;58.51;100527.25;5091681;28;20579;-51
2022/07/22 08:59:58;;;;;;;4.30;4.00;;;;;;;25.57;58.85;100531.31;5091982;28;20448;-49
2022/07/22 09:02:26;;;;;;;4.93;4.53;;;;;;;25.70;58.41;100531.13;5091336;28;20535;-50
2022/07/22 09:04:57;;;;;;;2.80;2.60;;;;;;;26.04;57.97;100520.84;5095017;28;20415;-49
2022/07/22 09:07:40;;;;;;;20.53;4.40;;;;;;;26.57;56.41;100515.13;5094835;28;20463;-50
2022/07/22 09:10:16;;;;;;;5.03;3.83;;;;;;;26.25;57.24;100513.44;5095178;28;20484;-50
2022/07/22 09:12:55;;;;;;;6.40;5.13;;;;;;;25.37;59.22;100524.91;5095089;28;20555;-51
2022/07/22 09:15:30;;;;;;;4.63;4.33;;;;;;;24.93;60.98;100519.63;5095477;28;20455;-50
2022/07/22 09:17:59;;;;;;;3.73;3.33;;;;;;;26.06;57.54;100518.84;5094709;28;20461;-51
2022/07/22 09:20:32;;;;;;;2.90;2.80;;;;;;;26.43;57.01;100521.84;5095133;28;20448;-50
2022/07/22 09:22:59;;;;;;;5.30;3.63;;;;;;;26.21;57.00;100509.28;5095032;28;20452;-51
2022/07/22 09:25:29;;;;;;;5.13;4.13;;;;;;;26.05;57.50;100511.66;5089916;28;20449;-51
2022/07/22 09:28:18;;;;;;;5.23;4.83;;;;;;;26.66;55.83;100513.41;5086795;28;20461;-51
2022/07/22 09:30:49;;;;;;;7.93;2.90;;;;;;;26.51;55.56;100512.97;5083205;28;20966;-51
2022/07/22 09:33:18;;;;;;;5.60;4.27;;;;;;;27.04;54.63;100510.75;5092708;28;20540;-50
2022/07/22 09:35:47;;;;;;;14.33;4.13;;;;;;;26.20;54.84;100514.88;5094605;28;20506;-51
2022/07/22 09:38:19;;;;;;;3.00;2.73;;;;;;;26.33;55.27;100509.19;5094291;28;20543;-51
2022/07/22 09:40:47;;;;;;;4.60;4.20;;;;;;;27.31;53.57;100500.97;5093985;28;20433;-52
2022/07/22 09:43:16;;;;;;;4.70;4.30;;;;;;;27.15;52.94;100504.28;5094492;28;20517;-52
2022/07/22 09:45:53;;;;;;;5.77;5.17;;;;;;;26.99;53.36;100496.63;5094444;28;20480;-52
2022/07/22 09:48:21;;;;;;;4.60;4.37;;;;;;;26.51;54.05;100499.34;5094122;28;20469;-50
2022/07/22 09:50:49;;;;;;;6.77;4.00;;;;;;;26.11;54.66;100491.16;5094048;28;20520;-51
2022/07/22 09:53:19;;;;;;;4.23;3.00;;;;;;;26.75;53.85;100494.34;5094132;28;20806;-50
2022/07/22 09:55:46;;;;;;;5.13;4.83;;;;;;;26.84;54.03;100485.28;5093798;28;20449;-51
2022/07/22 09:58:13;;;;;;;10.63;5.00;;;;;;;26.89;53.38;100490.31;5086545;28;20466;-50
2022/07/22 10:00:41;;;;;;;5.27;4.37;;;;;;;27.60;52.19;100482.63;5088323;28;20541;-51
2022/07/22 10:03:12;;;;;;;4.23;3.83;;;;;;;28.02;51.73;100485.78;5093740;28;20991;-50
2022/07/22 10:05:41;;;;;;;5.43;3.33;;;;;;;28.43;50.26;100486.31;5094056;28;20460;-51
2022/07/22 10:08:09;;;;;;;4.50;4.13;;;;;;;28.36;50.32;100481.59;5093614;28;21039;-52
2022/07/22 10:10:37;;;;;;;2.80;2.70;;;;;;;28.54;49.67;100461.47;5093851;28;20489;-52
2022/07/22 10:13:06;;;;;;;3.20;2.90;;;;;;;29.04;48.60;100466.41;5093698;28;20960;-51
2022/07/22 10:15:35;;;;;;;3.90;3.60;;;;;;;28.50;49.06;100468.25;5093206;28;20531;-52
2022/07/22 10:18:25;;;;;;;3.23;3.03;;;;;;;28.36;48.99;100465.19;5093995;28;20915;-52
2022/07/22 10:21:09;;;;;;;3.17;2.97;;;;;;;27.32;51.13;100465.31;5093831;28;20458;-51
2022/07/22 10:23:56;;;;;;;3.50;3.30;;;;;;;26.92;51.70;100456.44;5093889;28;20459;-51
2022/07/22 10:26:47;;;;;;;2.93;2.73;;;;;;;27.76;51.34;100453.84;5080529;28;20524;-52
2022/07/22 10:29:39;;;;;;;7.63;3.67;;;;;;;27.27;50.39;100455.81;5082716;28;20500;-52
2022/07/22 10:32:15;;;;;;;5.43;4.37;;;;;;;27.16;50.61;100451.41;5091036;28;20950;-51
2022/07/22 10:34:43;;;;;;;7.67;4.07;;;;;;;27.51;49.13;100450.72;5093317;28;20508;-51
2022/07/22 10:37:40;;;;;;;3.53;3.33;;;;;;;27.85;49.17;100451.06;5093500;28;20449;-52
2022/07/22 10:40:12;;;;;;;8.03;3.83;;;;;;;27.92;48.25;100435.78;5093277;28;20441;-51
2022/07/22 10:43:01;;;;;;;5.53;2.40;;;;;;;27.56;49.42;100437.50;5093521;28;20452;-52
2022/07/22 10:46:06;;;;;;;1.90;1.80;;;;;;;27.62;49.08;100438.75;5093113;28;20806;-51
2022/07/22 10:48:32;;;;;;;2.23;2.13;;;;;;;28.30;48.35;100429.25;5031386;28;20549;-51
2022/07/22 10:51:10;;;;;;;2.97;2.77;;;;;;;28.43;46.83;100428.00;5080056;28;20840;-51
2022/07/22 10:53:47;;;;;;;2.97;2.67;;;;;;;27.51;48.91;100434.34;5092961;28;20528;-51
2022/07/22 10:56:31;;;;;;;3.03;2.50;;;;;;;27.63;49.52;100424.09;5091847;28;20960;-51
2022/07/22 10:59:12;;;;;;;3.50;3.20;;;;;;;27.20;50.45;100417.34;5093038;28;20465;-51
2022/07/22 11:01:42;;;;;;;3.17;2.97;;;;;;;27.39;50.55;100427.34;5093002;28;20447;-52
2022/07/22 11:04:16;;;;;;;2.80;2.60;;;;;;;28.42;48.15;100409.88;5092284;28;20456;-50
2022/07/22 11:06:47;;;;;;;2.20;2.10;;;;;;;28.44;47.52;100400.50;5092962;28;20493;-50
2022/07/22 11:09:15;;;;;;;2.10;2.00;;;;;;;29.00;47.51;100399.31;5094090;28;20544;-51
2022/07/22 11:11:49;;;;;;;2.87;2.67;;;;;;;28.94;46.18;100402.69;5093099;28;20445;-50
2022/07/22 11:14:31;;;;;;;4.90;3.07;;;;;;;28.30;46.85;100401.03;5093541;28;20441;-50
2022/07/22 11:17:08;;;;;;;5.87;3.23;;;;;;;28.92;45.57;100396.53;5093222;28;20452;-52
2022/07/22 11:19:39;;;;;;;4.27;1.50;;;;;;;29.70;43.97;100386.38;5092874;28;20480;-52
2022/07/22 11:22:12;;;;;;;5.37;2.80;;;;;;;29.17;44.62;100387.44;5092879;28;20451;-51
2022/07/22 11:24:40;;;;;;;2.40;2.30;;;;;;;29.96;42.88;100385.44;5092480;28;20441;-51
2022/07/22 11:27:14;;;;;;;2.37;2.27;;;;;;;29.65;43.88;100374.22;5078026;28;20453;-52
2022/07/22 11:29:46;;;;;;;3.17;2.97;;;;;;;29.81;42.75;100377.00;5088617;28;20848;-51